Huvudsida
METAR-TAF:

METAR-TAF

Flygplatser :

Mostars internationella flygplats

Mostar, Bosnien och Hercegovina

latitud: 43-21N, longitud: 017-48E, höjd: 108 m

Aktuellt väderrapport

Denna rapport gjordes för 41 minuter sedan, klockan 19:00 UTC
Vind 6 kt varierande vindriktning i byarna ända upp till 17 kt
Temperatur 8°C
Fuktighet 36%
Tryck 1018 hPa
Sikt 10 km eller mer
Inga moln under 1 500 m eller inga cumulonimbus

METAR: LQMO 281900Z VRB06G17KT CAVOK 08/M06 Q1018

Tid: 20:41 (19:41 UTC)

Väderprognos

Denna rapport gjordes för 2 timmar och 41 minuter sedan, klockan 17:00 UTC
Prognos gäller från 28 kl. 18 UTC till 29 kl. 18 UTC
Vind 5 kt från väst/nordväst
Sikt 10 km eller mer
Få moln på en höjd av 4000 ft
Temporärt
från 28 kl. 18 UTC till 28 kl. 23 UTC
Vind 15 kt från nord

TAF: LQMO 281700Z 2818/2918 30005KT 9999 FEW040 TX14/2914Z TNM01/2905Z TEMPO 2818/2823 35015KT

Aktuella väderrapporter och prognoser från 4000 flygplatser (METAR- och TAF-rapporter).

De tillgängliga stationerna syns som gula och röda prickar på kartan.

För musen över prickarna för att se namnen på stationerna.

Klicka sedan för att få väderrapporter och prognoser.

För att ändra kartan: Klicka på de gröna knapparna med ett svart kors på för att zooma in; den gröna knappen med ett streck på för att zooma ut; eller på de gröna pilarna för angränsande kartor.


METAR-TAF: